Time;durP1;ratioP1;P1;durP2;ratioP2;P2;SDS_P1;SDS_P2;PMS_P1;PMS_P2;Temp;Humidity;BMP_temperature;BMP_pressure;BME280_temperature;BME280_humidity;BME280_pressure;Samples;Min_cycle;Max_cycle;Signal;HPM_P1;HPM_P2
2023/06/09 00:01:53;;;;;;;16.80;11.95;;;15.30;99.90;;;;;;10377435;28;20275;-93
2023/06/09 00:06:56;;;;;;;18.40;13.30;;;15.40;99.90;;;;;;10358894;28;20224;-94
2023/06/09 00:11:59;;;;;;;15.02;12.90;;;15.30;99.90;;;;;;10376415;28;20205;-94
2023/06/09 00:17:02;;;;;;;18.38;14.05;;;15.20;99.90;;;;;;10375859;28;20240;-93
2023/06/09 00:22:05;;;;;;;11.73;10.63;;;15.10;99.90;;;;;;10375550;28;20200;-93
2023/06/09 00:27:08;;;;;;;13.85;11.82;;;15.00;99.90;;;;;;10376561;28;20221;-93
2023/06/09 00:32:11;;;;;;;18.23;15.68;;;15.10;99.90;;;;;;10358916;28;20229;-93
2023/06/09 00:37:14;;;;;;;27.52;15.82;;;14.90;99.90;;;;;;10358488;28;20231;-93
2023/06/09 00:42:17;;;;;;;14.75;13.25;;;14.60;99.90;;;;;;10358147;28;20231;-93
2023/06/09 00:47:20;;;;;;;22.38;15.20;;;14.60;99.90;;;;;;10374776;28;20216;-93
2023/06/09 00:52:23;;;;;;;18.30;15.25;;;14.60;99.90;;;;;;10357778;28;20228;-93
2023/06/09 00:57:25;;;;;;;19.92;15.70;;;14.50;99.90;;;;;;10357512;28;20208;-94
2023/06/09 01:02:29;;;;;;;18.60;15.00;;;14.50;99.90;;;;;;10373524;28;20212;-93
2023/06/09 01:08:00;;;;;;;14.43;12.90;;;14.50;99.90;;;;;;10375004;28;20213;-93
2023/06/09 01:13:28;;;;;;;18.08;14.80;;;14.40;99.90;;;;;;10357231;28;20192;-93
2023/06/09 01:18:33;;;;;;;17.67;14.45;;;14.30;99.90;;;;;;10340918;28;20227;-94
2023/06/09 01:23:58;;;;;;;16.52;14.88;;;14.10;99.90;;;;;;10356490;28;20290;-93
2023/06/09 01:29:03;;;;;;;19.67;15.75;;;14.00;99.90;;;;;;10371776;28;20252;-93
2023/06/09 01:34:06;;;;;;;20.15;14.57;;;14.00;99.90;;;;;;10340131;28;20216;-93
2023/06/09 01:39:10;;;;;;;16.02;14.38;;;14.10;99.90;;;;;;10373582;28;20220;-93
2023/06/09 01:44:13;;;;;;;14.93;13.32;;;13.90;99.90;;;;;;10373203;28;20350;-94
2023/06/09 01:49:31;;;;;;;16.45;14.85;;;13.90;99.90;;;;;;10371766;28;20223;-93
2023/06/09 01:55:00;;;;;;;14.80;12.32;;;13.80;99.90;;;;;;10355017;28;20744;-92
2023/06/09 02:00:07;;;;;;;17.52;12.88;;;13.80;99.90;;;;;;10368606;28;20212;-93
2023/06/09 02:05:17;;;;;;;16.00;14.40;;;13.90;99.90;;;;;;10369682;28;20224;-95
2023/06/09 02:10:21;;;;;;;13.43;12.07;;;13.70;99.90;;;;;;10354600;28;20617;-93
2023/06/09 02:15:23;;;;;;;11.27;10.07;;;13.80;99.90;;;;;;10354769;28;20262;-93
2023/06/09 02:20:26;;;;;;;12.10;11.00;;;14.00;99.90;;;;;;10355179;28;20278;-95
2023/06/09 02:25:29;;;;;;;13.80;12.30;;;14.00;99.90;;;;;;10372038;28;20215;-93
2023/06/09 02:30:35;;;;;;;15.73;13.40;;;14.00;99.90;;;;;;10371280;28;20308;-93
2023/06/09 02:35:37;;;;;;;18.38;13.20;;;13.80;99.90;;;;;;10370040;28;20691;-93
2023/06/09 02:40:46;;;;;;;14.50;13.00;;;13.90;99.90;;;;;;10329200;28;20196;-94
2023/06/09 02:45:48;;;;;;;12.82;11.65;;;13.80;99.90;;;;;;10345816;28;20271;-93
2023/06/09 02:50:51;;;;;;;14.55;13.15;;;13.90;99.90;;;;;;10330776;28;20255;-93
2023/06/09 02:55:56;;;;;;;14.30;12.55;;;13.80;99.90;;;;;;10345061;28;20741;-93
2023/06/09 03:01:07;;;;;;;17.38;15.70;;;13.80;99.90;;;;;;10344675;28;20593;-93
2023/06/09 03:06:13;;;;;;;20.70;16.88;;;13.70;99.90;;;;;;10329642;28;20638;-94
2023/06/09 03:11:16;;;;;;;17.98;16.02;;;13.60;99.90;;;;;;10338856;28;20201;-94
2023/06/09 03:16:19;;;;;;;16.80;13.93;;;13.80;99.90;;;;;;10336065;28;20632;-93
2023/06/09 03:21:24;;;;;;;15.93;14.38;;;13.80;99.90;;;;;;10336615;28;20208;-93
2023/06/09 03:26:29;;;;;;;19.73;14.55;;;13.90;99.90;;;;;;10336471;28;20311;-92
2023/06/09 03:31:33;;;;;;;16.13;12.38;;;13.90;99.90;;;;;;10336101;28;20283;-93
2023/06/09 03:36:37;;;;;;;11.18;9.90;;;14.00;99.90;;;;;;10352056;28;20625;-93
2023/06/09 03:41:40;;;;;;;16.40;14.70;;;14.10;99.90;;;;;;10352234;28;20251;-93
2023/06/09 03:46:43;;;;;;;20.80;17.45;;;14.30;99.90;;;;;;10318853;28;20229;-94
2023/06/09 03:51:46;;;;;;;19.48;15.27;;;14.40;99.90;;;;;;10352195;28;20259;-93
2023/06/09 03:56:49;;;;;;;22.52;17.88;;;14.50;99.90;;;;;;10351911;28;20208;-93
2023/06/09 04:01:52;;;;;;;15.68;13.80;;;14.60;99.90;;;;;;10351025;28;20217;-94
2023/06/09 04:06:56;;;;;;;15.75;12.90;;;14.70;99.90;;;;;;10351045;28;20233;-94
2023/06/09 04:11:59;;;;;;;18.88;16.98;;;15.00;99.90;;;;;;10352920;28;20193;-93
2023/06/09 04:17:03;;;;;;;11.80;10.60;;;15.20;99.90;;;;;;10374908;28;20216;-93
2023/06/09 04:22:07;;;;;;;10.43;9.45;;;15.40;99.90;;;;;;10357338;28;20209;-93
2023/06/09 04:27:13;;;;;;;31.33;15.27;;;15.60;99.90;;;;;;10374618;28;20224;-93
2023/06/09 04:32:17;;;;;;;13.90;9.13;;;15.80;99.90;;;;;;10390279;28;20232;-93
2023/06/09 04:37:20;;;;;;;25.10;12.10;;;15.90;99.90;;;;;;10374647;28;20263;-93
2023/06/09 04:42:24;;;;;;;11.27;10.23;;;16.10;99.90;;;;;;10358205;28;20208;-95
2023/06/09 04:47:28;;;;;;;10.25;9.25;;;16.30;99.90;;;;;;10358161;28;20220;-93
2023/06/09 04:52:31;;;;;;;16.48;12.75;;;16.60;99.90;;;;;;10373651;28;20270;-94
2023/06/09 04:57:34;;;;;;;7.55;6.85;;;16.80;99.90;;;;;;10373371;28;20209;-93
2023/06/09 05:02:39;;;;;;;8.00;6.85;;;17.00;99.90;;;;;;10374476;28;20201;-93
2023/06/09 05:07:42;;;;;;;10.15;8.85;;;17.20;99.90;;;;;;10356352;28;20278;-93
2023/06/09 05:12:45;;;;;;;6.28;5.60;;;17.40;99.90;;;;;;10372693;28;20259;-93
2023/06/09 05:17:49;;;;;;;6.18;5.68;;;17.60;99.90;;;;;;10356438;28;20590;-92
2023/06/09 05:22:53;;;;;;;4.78;4.38;;;17.80;99.90;;;;;;10388632;28;20208;-93
2023/06/09 05:27:55;;;;;;;6.35;5.75;;;18.00;99.90;;;;;;10371742;28;20232;-93
2023/06/09 05:32:58;;;;;;;7.88;7.25;;;18.30;99.90;;;;;;10387797;28;20306;-93
2023/06/09 05:38:02;;;;;;;9.18;8.30;;;18.50;99.90;;;;;;10388207;28;20270;-93
2023/06/09 05:43:05;;;;;;;3.85;3.55;;;18.70;99.90;;;;;;10372192;28;20200;-92
2023/06/09 05:48:08;;;;;;;9.02;7.63;;;18.90;99.90;;;;;;10373100;28;20247;-93
2023/06/09 05:53:11;;;;;;;9.45;8.07;;;19.20;99.90;;;;;;10372943;28;20254;-93
2023/06/09 05:58:14;;;;;;;5.65;5.15;;;19.30;99.90;;;;;;10371319;28;20226;-94
2023/06/09 06:03:17;;;;;;;8.05;7.25;;;19.60;99.90;;;;;;10371832;28;20279;-93
2023/06/09 06:08:20;;;;;;;8.68;7.82;;;19.80;99.00;;;;;;10371495;28;20224;-93
2023/06/09 06:13:22;;;;;;;9.68;7.13;;;20.00;97.70;;;;;;10386608;28;20275;-92
2023/06/09 06:18:25;;;;;;;7.47;6.78;;;20.20;97.20;;;;;;10372302;28;20201;-92
2023/06/09 06:23:28;;;;;;;7.43;6.82;;;20.40;96.80;;;;;;10371923;28;20192;-93
2023/06/09 06:28:32;;;;;;;8.63;6.45;;;20.50;96.10;;;;;;10354571;28;20702;-93
2023/06/09 06:33:34;;;;;;;7.75;5.50;;;20.70;95.00;;;;;;10371686;28;20780;-93
2023/06/09 06:38:37;;;;;;;12.68;6.15;;;20.90;93.60;;;;;;10372012;28;20258;-93
2023/06/09 06:43:41;;;;;;;7.22;6.53;;;21.10;92.60;;;;;;10370988;28;20246;-93
2023/06/09 06:48:44;;;;;;;5.13;4.63;;;21.30;92.30;;;;;;10353934;28;20232;-93
2023/06/09 06:53:47;;;;;;;8.30;6.22;;;21.50;91.50;;;;;;10371831;28;20255;-94
2023/06/09 06:58:49;;;;;;;9.90;6.88;;;21.70;91.00;;;;;;10371646;28;20254;-94
2023/06/09 07:03:52;;;;;;;4.78;4.38;;;21.90;88.00;;;;;;10354041;28;20252;-94
2023/06/09 07:08:56;;;;;;;4.60;4.20;;;22.10;84.60;;;;;;10370968;28;20597;-93
2023/06/09 07:13:58;;;;;;;6.65;5.45;;;22.40;81.90;;;;;;10370194;28;20245;-93
2023/06/09 07:19:01;;;;;;;5.07;4.68;;;22.70;75.60;;;;;;10370783;28;20208;-93
2023/06/09 07:24:04;;;;;;;4.68;4.28;;;22.90;72.10;;;;;;10337731;28;20690;-94
2023/06/09 07:29:07;;;;;;;7.82;4.57;;;23.20;70.50;;;;;;10369655;28;20236;-93
2023/06/09 07:34:10;;;;;;;8.02;4.78;;;23.40;63.80;;;;;;10368985;28;20212;-94
2023/06/09 07:39:13;;;;;;;4.55;4.22;;;23.70;58.40;;;;;;10371050;28;20259;-94
2023/06/09 07:44:16;;;;;;;4.93;4.53;;;23.80;55.60;;;;;;10370566;28;20574;-94
2023/06/09 07:49:18;;;;;;;6.40;5.40;;;24.00;54.30;;;;;;10370496;28;20506;-93
2023/06/09 07:54:23;;;;;;;5.10;4.60;;;24.10;47.20;;;;;;10357485;28;20201;-93
2023/06/09 07:59:26;;;;;;;8.13;4.35;;;24.30;46.30;;;;;;10377496;28;20227;-93
2023/06/09 08:04:29;;;;;;;4.20;3.83;;;24.50;41.80;;;;;;10376543;28;20228;-94
2023/06/09 08:09:32;;;;;;;12.63;4.63;;;24.70;43.30;;;;;;10377484;28;20220;-94
2023/06/09 08:14:35;;;;;;;4.95;4.40;;;24.70;42.90;;;;;;10376944;28;20205;-93
2023/06/09 08:19:37;;;;;;;11.65;4.57;;;24.90;33.50;;;;;;10392204;28;20205;-93
2023/06/09 08:24:40;;;;;;;5.72;5.03;;;25.00;30.80;;;;;;10376750;28;20193;-95
2023/06/09 08:29:43;;;;;;;9.48;5.82;;;25.30;31.90;;;;;;10376289;28;20232;-93
2023/06/09 08:34:45;;;;;;;9.02;4.10;;;25.40;30.70;;;;;;10374790;28;20212;-94
2023/06/09 08:39:48;;;;;;;6.03;4.25;;;25.40;33.00;;;;;;10376489;28;20196;-94
2023/06/09 08:45:00;;;;;;;4.93;4.40;;;25.60;27.80;;;;;;10392773;28;20254;-94
2023/06/09 08:50:07;;;;;;;8.20;4.75;;;25.60;29.00;;;;;;10417387;28;20226;-93
2023/06/09 08:55:13;;;;;;;8.35;4.38;;;25.60;27.80;;;;;;10416287;28;20624;-94
2023/06/09 09:00:16;;;;;;;4.70;4.30;;;25.60;28.50;;;;;;10416209;28;20224;-94
2023/06/09 09:05:19;;;;;;;4.70;3.42;;;25.60;27.20;;;;;;10397429;28;20227;-94
2023/06/09 09:10:22;;;;;;;33.80;8.52;;;25.50;29.80;;;;;;10414510;28;20196;-94
2023/06/09 09:15:28;;;;;;;5.35;4.03;;;25.60;28.20;;;;;;10416336;28;20288;-95
2023/06/09 09:20:32;;;;;;;4.82;4.38;;;25.70;29.70;;;;;;10415829;28;20570;-94
2023/06/09 09:25:35;;;;;;;5.35;4.85;;;25.80;30.10;;;;;;10415909;28;20632;-95
2023/06/09 09:30:41;;;;;;;4.57;4.18;;;26.00;28.70;;;;;;10413587;28;20611;-93
2023/06/09 09:35:46;;;;;;;4.47;4.07;;;26.30;30.40;;;;;;10413823;28;20665;-95
2023/06/09 09:40:56;;;;;;;6.15;4.20;;;27.50;28.90;;;;;;10415181;28;20215;-94
2023/06/09 09:46:02;;;;;;;4.45;3.80;;;26.60;26.70;;;;;;10415286;28;20219;-94
2023/06/09 09:51:05;;;;;;;4.30;3.92;;;26.60;24.10;;;;;;10415159;28;20204;-94
2023/06/09 09:56:08;;;;;;;5.65;3.97;;;26.50;25.20;;;;;;10396895;28;20262;-95
2023/06/09 10:01:11;;;;;;;7.40;4.20;;;26.60;24.00;;;;;;10397030;28;20204;-93
2023/06/09 10:06:16;;;;;;;6.00;3.40;;;26.90;20.80;;;;;;10415089;28;20563;-94
2023/06/09 10:11:21;;;;;;;3.42;3.22;;;26.70;19.90;;;;;;10412651;28;20203;-95
2023/06/09 10:16:27;;;;;;;3.85;3.55;;;26.80;21.50;;;;;;10412455;28;20204;-93
2023/06/09 10:21:31;;;;;;;3.55;3.25;;;27.00;20.10;;;;;;10412426;28;20203;-94
2023/06/09 10:26:37;;;;;;;4.47;4.07;;;27.20;20.90;;;;;;10413240;28;20242;-94
2023/06/09 10:31:43;;;;;;;4.97;4.45;;;27.00;18.90;;;;;;10413524;28;20228;-94
2023/06/09 10:36:51;;;;;;;5.40;4.35;;;26.80;18.60;;;;;;10412228;28;20277;-95
2023/06/09 10:42:29;;;;;;;5.85;3.58;;;26.80;19.30;;;;;;10413630;28;20254;-95
2023/06/09 10:47:46;;;;;;;5.80;3.90;;;26.70;18.00;;;;;;10230729;28;20662;-94
2023/06/09 10:52:54;;;;;;;4.88;4.38;;;26.80;16.80;;;;;;10231190;28;20202;-94
2023/06/09 10:57:57;;;;;;;4.93;4.38;;;27.00;17.70;;;;;;10246446;28;20206;-94
2023/06/09 11:03:26;;;;;;;5.38;4.25;;;26.80;19.20;;;;;;10246823;28;20667;-95
2023/06/09 11:09:00;;;;;;;4.30;3.08;;;26.90;17.50;;;;;;10246014;28;20783;-94
2023/06/09 11:14:02;;;;;;;11.85;4.45;;;27.00;17.60;;;;;;10230834;28;20232;-94
2023/06/09 11:19:21;;;;;;;6.28;4.93;;;26.90;15.90;;;;;;10246063;28;20269;-94
2023/06/09 11:24:50;;;;;;;5.07;4.60;;;26.80;16.50;;;;;;10371404;28;20255;-94
2023/06/09 11:30:14;;;;;;;4.40;4.00;;;26.70;15.00;;;;;;10375652;28;20231;-95
2023/06/09 11:35:25;;;;;;;4.60;4.20;;;26.70;15.10;;;;;;10380228;28;20223;-95
2023/06/09 11:40:51;;;;;;;14.30;5.82;;;26.80;15.50;;;;;;10377336;28;20578;-95
2023/06/09 11:46:01;;;;;;;4.13;3.78;;;26.70;14.10;;;;;;10379515;28;20266;-94
2023/06/09 11:51:04;;;;;;;4.22;3.92;;;26.60;19.30;;;;;;10377244;28;20263;-93
2023/06/09 11:56:07;;;;;;;4.18;3.78;;;26.50;16.50;;;;;;10376536;28;20216;-94
2023/06/09 12:01:10;;;;;;;9.98;5.32;;;26.50;15.30;;;;;;10377815;28;20208;-94
2023/06/09 12:06:16;;;;;;;8.85;3.63;;;26.70;11.20;;;;;;10377774;28;20621;-94
2023/06/09 12:11:19;;;;;;;4.13;3.70;;;26.80;14.20;;;;;;10377352;28;20559;-93
2023/06/09 12:16:23;;;;;;;6.72;4.10;;;27.00;17.50;;;;;;10359466;28;20204;-94
2023/06/09 12:21:32;;;;;;;12.88;4.07;;;27.20;13.20;;;;;;10375800;28;20580;-93
2023/06/09 12:26:39;;;;;;;5.05;3.67;;;27.30;11.40;;;;;;10377212;28;20217;-94
2023/06/09 12:31:46;;;;;;;7.35;4.10;;;27.50;13.10;;;;;;10374576;28;20262;-94
2023/06/09 12:36:50;;;;;;;4.18;3.88;;;27.60;11.50;;;;;;10375278;28;20243;-95
2023/06/09 12:41:52;;;;;;;4.47;3.95;;;27.20;18.70;;;;;;10373756;28;20234;-94
2023/06/09 12:46:55;;;;;;;5.45;3.42;;;27.10;13.30;;;;;;10375724;28;20228;-94
2023/06/09 12:52:03;;;;;;;3.95;3.55;;;27.30;11.90;;;;;;10375340;28;20223;-93
2023/06/09 12:57:06;;;;;;;7.00;3.95;;;27.60;9.60;;;;;;10374285;28;20208;-93
2023/06/09 13:02:08;;;;;;;10.75;4.22;;;27.70;13.90;;;;;;10373858;28;20263;-93
2023/06/09 13:07:11;;;;;;;8.55;3.53;;;27.70;7.60;;;;;;10374308;28;20224;-93
2023/06/09 13:12:14;;;;;;;5.30;4.03;;;27.60;10.30;;;;;;10393497;28;20617;-93
2023/06/09 13:17:16;;;;;;;4.25;3.03;;;27.60;10.10;;;;;;10415243;28;20203;-93
2023/06/09 13:22:19;;;;;;;3.90;3.08;;;27.70;10.60;;;;;;10415467;28;20608;-93
2023/06/09 13:27:22;;;;;;;4.72;3.67;;;27.70;11.10;;;;;;10397118;28;20791;-94
2023/06/09 13:32:24;;;;;;;7.57;3.63;;;27.80;10.50;;;;;;10413312;28;20258;-94
2023/06/09 13:37:27;;;;;;;9.00;4.30;;;27.90;9.80;;;;;;10397170;28;20195;-94
2023/06/09 13:42:29;;;;;;;4.07;3.67;;;27.80;10.80;;;;;;10397097;28;20751;-93
2023/06/09 13:47:32;;;;;;;4.15;3.75;;;27.90;7.60;;;;;;10414243;28;20223;-93
2023/06/09 13:52:35;;;;;;;8.07;3.80;;;27.70;9.50;;;;;;10396193;28;20196;-93
2023/06/09 13:57:38;;;;;;;3.70;3.40;;;27.70;7.70;;;;;;10414018;28;20204;-93
2023/06/09 14:02:42;;;;;;;7.85;4.10;;;28.10;9.10;;;;;;10413536;28;20215;-93
2023/06/09 14:07:46;;;;;;;6.35;4.03;;;27.90;9.20;;;;;;10395448;28;20625;-93
2023/06/09 14:12:51;;;;;;;3.53;3.28;;;27.90;14.10;;;;;;10395563;28;20222;-93
2023/06/09 14:17:53;;;;;;;10.25;3.75;;;28.00;8.60;;;;;;10413088;28;20262;-93
2023/06/09 14:22:58;;;;;;;4.28;3.88;;;28.10;8.40;;;;;;10412932;28;20208;-93
2023/06/09 14:28:01;;;;;;;5.13;4.60;;;27.50;10.40;;;;;;10412880;28;20219;-94
2023/06/09 14:33:04;;;;;;;7.03;4.25;;;27.40;10.50;;;;;;10412185;28;20235;-94
2023/06/09 14:38:07;;;;;;;6.82;3.67;;;27.60;11.70;;;;;;10411739;28;20203;-93
2023/06/09 14:43:10;;;;;;;5.28;4.20;;;27.70;10.50;;;;;;10412322;28;20658;-92
2023/06/09 14:48:13;;;;;;;3.65;3.35;;;27.50;10.50;;;;;;10411870;28;20275;-94
2023/06/09 14:53:16;;;;;;;4.78;3.97;;;27.50;15.70;;;;;;10394521;28;20578;-93
2023/06/09 14:58:19;;;;;;;5.70;4.75;;;27.40;17.20;;;;;;10411661;28;20207;-94
2023/06/09 15:03:21;;;;;;;6.72;3.92;;;27.30;12.20;;;;;;10414453;28;20200;-93
2023/06/09 15:08:24;;;;;;;7.07;4.75;;;27.20;12.60;;;;;;10420846;28;20219;-92
2023/06/09 15:13:27;;;;;;;10.85;3.75;;;27.20;11.40;;;;;;10378243;28;20197;-93
2023/06/09 15:18:29;;;;;;;7.88;4.47;;;27.30;13.10;;;;;;10377814;28;20622;-93
2023/06/09 15:23:32;;;;;;;4.80;4.40;;;27.20;11.30;;;;;;10379174;28;20192;-94
2023/06/09 15:28:34;;;;;;;4.45;3.80;;;27.10;11.10;;;;;;10377964;28;20224;-94
2023/06/09 15:33:37;;;;;;;4.30;4.00;;;27.20;11.60;;;;;;10312403;28;20288;-93
2023/06/09 15:38:39;;;;;;;5.68;4.18;;;27.30;13.90;;;;;;10296345;28;20197;-93
2023/06/09 15:43:42;;;;;;;4.95;4.55;;;27.20;13.40;;;;;;10297517;28;20546;-92
2023/06/09 15:48:45;;;;;;;4.18;3.78;;;27.20;13.70;;;;;;10297107;28;20222;-92
2023/06/09 15:53:47;;;;;;;4.85;4.30;;;27.10;15.30;;;;;;10295705;28;20209;-94
2023/06/09 15:58:50;;;;;;;5.15;4.00;;;27.20;11.50;;;;;;10295747;28;20249;-94
2023/06/09 16:03:52;;;;;;;4.60;4.20;;;27.20;13.60;;;;;;10296696;28;20206;-93
2023/06/09 16:08:55;;;;;;;10.05;4.05;;;27.20;13.30;;;;;;10296253;28;20226;-94
2023/06/09 16:13:59;;;;;;;5.78;4.82;;;27.30;11.40;;;;;;10328374;28;20197;-93
2023/06/09 16:19:02;;;;;;;4.40;4.00;;;27.40;12.40;;;;;;10334845;28;20271;-94
2023/06/09 16:24:05;;;;;;;5.55;3.92;;;27.40;12.10;;;;;;10335049;28;20197;-94
2023/06/09 16:29:08;;;;;;;9.23;5.22;;;27.30;13.60;;;;;;10342989;28;20236;-94
2023/06/09 16:34:10;;;;;;;4.13;3.83;;;27.10;10.40;;;;;;10417340;28;20610;-94
2023/06/09 16:39:13;;;;;;;7.55;4.35;;;26.90;13.10;;;;;;10416943;28;20216;-94
2023/06/09 16:44:17;;;;;;;9.07;4.53;;;26.80;13.00;;;;;;10416093;28;20200;-94
2023/06/09 16:49:20;;;;;;;11.23;5.57;;;26.70;11.60;;;;;;10416731;28;20285;-94
2023/06/09 16:54:22;;;;;;;9.23;5.10;;;26.60;11.80;;;;;;10415414;28;20249;-94
2023/06/09 16:59:25;;;;;;;9.55;4.95;;;26.40;11.80;;;;;;10414651;28;20574;-95
2023/06/09 17:04:27;;;;;;;5.70;4.32;;;26.20;12.40;;;;;;10414882;28;20208;-94
2023/06/09 17:09:30;;;;;;;7.38;6.68;;;26.30;12.80;;;;;;10398004;28;20223;-93
2023/06/09 17:14:33;;;;;;;17.65;5.20;;;26.30;12.70;;;;;;10389372;28;20576;-93
2023/06/09 17:19:36;;;;;;;9.57;5.18;;;26.20;13.00;;;;;;10373500;28;20663;-93
2023/06/09 17:24:38;;;;;;;9.63;5.10;;;26.10;13.90;;;;;;10372588;28;20668;-93
2023/06/09 17:29:41;;;;;;;10.10;5.22;;;26.10;14.70;;;;;;10372787;28;20291;-94
2023/06/09 17:34:44;;;;;;;7.13;5.43;;;25.90;15.00;;;;;;10374372;28;20243;-95
2023/06/09 17:39:46;;;;;;;5.88;5.20;;;25.80;15.30;;;;;;10374131;28;20223;-93
2023/06/09 17:44:50;;;;;;;10.60;5.20;;;25.60;15.20;;;;;;10388528;28;20267;-93
2023/06/09 17:49:53;;;;;;;6.47;4.95;;;25.50;17.00;;;;;;10373732;28;20297;-94
2023/06/09 17:54:55;;;;;;;8.48;4.80;;;25.30;17.80;;;;;;10373757;28;20615;-95
2023/06/09 17:59:59;;;;;;;7.88;4.85;;;25.00;18.70;;;;;;10373490;28;20204;-94
2023/06/09 18:05:02;;;;;;;6.43;5.15;;;24.90;20.10;;;;;;10373095;28;20262;-94
2023/06/09 18:10:06;;;;;;;8.63;4.90;;;24.90;20.10;;;;;;10375477;28;20216;-93
2023/06/09 18:15:09;;;;;;;7.05;5.20;;;24.70;20.30;;;;;;10413935;28;20261;-94
2023/06/09 18:20:12;;;;;;;10.57;7.10;;;24.60;19.80;;;;;;10413714;28;20223;-95
2023/06/09 18:25:14;;;;;;;12.70;5.10;;;24.60;20.30;;;;;;10414713;28;20204;-94
2023/06/09 18:30:17;;;;;;;8.65;6.35;;;24.50;22.30;;;;;;10412956;28;20227;-94
2023/06/09 18:35:20;;;;;;;8.48;6.22;;;24.40;22.70;;;;;;10413091;28;20222;-94
2023/06/09 18:40:22;;;;;;;10.43;7.28;;;24.20;24.60;;;;;;10412483;28;20191;-94
2023/06/09 18:45:25;;;;;;;14.02;5.18;;;24.00;25.90;;;;;;10413559;28;20203;-94
2023/06/09 18:50:28;;;;;;;8.60;6.55;;;23.70;27.30;;;;;;10379774;28;20223;-94
2023/06/09 18:55:30;;;;;;;10.55;6.43;;;23.60;28.40;;;;;;10411598;28;20234;-95
2023/06/09 19:00:33;;;;;;;16.85;7.03;;;23.30;30.00;;;;;;10394902;28;20775;-94
2023/06/09 19:05:36;;;;;;;13.63;7.28;;;23.00;32.00;;;;;;10411320;28;20674;-94
2023/06/09 19:10:38;;;;;;;9.25;7.75;;;22.80;33.00;;;;;;10413234;28;20219;-93
2023/06/09 19:15:41;;;;;;;6.28;5.75;;;22.60;35.00;;;;;;10412503;28;20199;-94
2023/06/09 19:20:46;;;;;;;8.63;6.78;;;22.40;37.00;;;;;;10412331;28;20618;-94
2023/06/09 19:25:49;;;;;;;9.02;7.40;;;22.20;38.50;;;;;;10411920;28;20261;-94
2023/06/09 19:30:52;;;;;;;11.90;7.70;;;21.90;40.10;;;;;;10412223;28;20232;-94
2023/06/09 19:35:54;;;;;;;15.68;7.03;;;21.70;42.30;;;;;;10396084;28;20196;-95
2023/06/09 19:40:57;;;;;;;26.33;7.63;;;21.40;46.00;;;;;;10414829;28;20273;-94
2023/06/09 19:46:02;;;;;;;23.63;7.57;;;21.20;49.80;;;;;;10413136;28;20200;-95
2023/06/09 19:51:05;;;;;;;12.48;6.95;;;20.90;52.40;;;;;;10417497;28;20227;-94
2023/06/09 19:56:13;;;;;;;10.18;6.95;;;20.70;57.20;;;;;;10420021;28;20670;-94
2023/06/09 20:01:15;;;;;;;14.68;7.22;;;20.40;61.90;;;;;;10401767;28;20736;-95
2023/06/09 20:06:18;;;;;;;11.05;7.80;;;20.20;64.00;;;;;;10419654;28;20195;-94
2023/06/09 20:11:21;;;;;;;10.88;7.13;;;20.10;69.90;;;;;;10419184;28;20632;-94
2023/06/09 20:16:24;;;;;;;12.70;8.50;;;20.10;71.90;;;;;;10418308;28;20566;-94
2023/06/09 20:21:26;;;;;;;14.27;6.80;;;20.10;72.10;;;;;;10401095;28;20241;-93
2023/06/09 20:26:30;;;;;;;7.72;5.95;;;20.10;74.40;;;;;;10417829;28;20203;-95
2023/06/09 20:31:32;;;;;;;10.30;7.53;;;20.10;75.10;;;;;;10417299;28;20598;-94
2023/06/09 20:36:38;;;;;;;14.48;7.60;;;20.00;81.00;;;;;;10418496;28;20200;-93
2023/06/09 20:41:41;;;;;;;47.10;10.25;;;19.80;81.20;;;;;;10400346;28;20212;-94
2023/06/09 20:46:45;;;;;;;13.57;8.52;;;19.70;84.70;;;;;;10416275;28;20545;-95
2023/06/09 20:51:47;;;;;;;12.30;7.85;;;19.50;85.80;;;;;;10416661;28;20309;-95
2023/06/09 20:56:50;;;;;;;10.45;7.95;;;19.40;86.50;;;;;;10416169;28;20277;-94
2023/06/09 21:01:53;;;;;;;15.77;8.23;;;19.20;88.80;;;;;;10415352;28;20208;-93
2023/06/09 21:06:56;;;;;;;28.27;8.90;;;19.00;90.30;;;;;;10416336;28;20278;-95
2023/06/09 21:11:59;;;;;;;12.23;7.65;;;18.90;92.00;;;;;;10414727;28;20223;-95
2023/06/09 21:17:02;;;;;;;12.80;8.30;;;18.80;92.10;;;;;;10398793;28;20199;-94
2023/06/09 21:22:05;;;;;;;10.85;7.28;;;18.60;91.80;;;;;;10416036;28;20248;-94
2023/06/09 21:27:07;;;;;;;11.93;8.45;;;18.60;91.80;;;;;;10415592;28;20255;-94
2023/06/09 21:32:10;;;;;;;6.15;5.57;;;18.60;91.90;;;;;;10414679;28;20231;-93
2023/06/09 21:37:13;;;;;;;8.75;6.72;;;18.60;92.20;;;;;;10398043;28;20210;-94
2023/06/09 21:42:18;;;;;;;8.48;6.18;;;18.50;92.70;;;;;;10415396;28;20547;-94
2023/06/09 21:47:20;;;;;;;14.45;8.00;;;18.40;93.10;;;;;;10413049;28;20257;-94
2023/06/09 21:52:23;;;;;;;8.15;5.53;;;18.30;93.90;;;;;;10414572;28;20219;-94
2023/06/09 21:57:25;;;;;;;12.27;6.75;;;18.10;94.50;;;;;;10414694;28;20196;-94
2023/06/09 22:02:28;;;;;;;9.15;6.97;;;18.10;94.50;;;;;;10412362;28;20226;-93
2023/06/09 22:07:30;;;;;;;7.10;5.32;;;18.00;95.20;;;;;;10413301;28;20204;-94
2023/06/09 22:12:38;;;;;;;12.98;8.50;;;18.00;95.60;;;;;;10415604;28;20242;-94
2023/06/09 22:17:44;;;;;;;8.30;5.97;;;17.80;96.10;;;;;;10421174;28;20571;-95
2023/06/09 22:22:47;;;;;;;9.85;6.65;;;17.70;96.60;;;;;;10421370;28;20208;-94
2023/06/09 22:27:50;;;;;;;8.32;7.05;;;17.60;96.20;;;;;;10415287;28;20314;-94
2023/06/09 22:32:52;;;;;;;11.13;8.98;;;17.60;96.60;;;;;;10413516;28;20236;-94
2023/06/09 22:37:55;;;;;;;7.13;6.43;;;17.40;96.40;;;;;;10413692;28;20230;-93
2023/06/09 22:42:58;;;;;;;8.07;6.72;;;17.40;97.00;;;;;;10413375;28;20207;-94
2023/06/09 22:48:00;;;;;;;12.30;5.80;;;17.50;96.90;;;;;;10411815;28;20200;-94
2023/06/09 22:53:03;;;;;;;7.57;6.75;;;17.50;97.10;;;;;;10412789;28;20224;-94
2023/06/09 22:58:06;;;;;;;8.57;7.65;;;17.60;97.20;;;;;;10395093;28;20253;-94
2023/06/09 23:03:09;;;;;;;6.75;6.05;;;17.50;96.90;;;;;;10413002;28;20222;-94
2023/06/09 23:08:11;;;;;;;9.57;7.68;;;17.40;97.40;;;;;;10411839;28;20548;-94
2023/06/09 23:13:14;;;;;;;7.63;6.03;;;17.40;97.80;;;;;;10412673;28;20629;-93
2023/06/09 23:18:17;;;;;;;7.50;6.85;;;17.40;98.30;;;;;;10410899;28;20204;-94
2023/06/09 23:23:21;;;;;;;5.70;4.95;;;17.40;98.50;;;;;;10412518;28;20204;-93
2023/06/09 23:28:24;;;;;;;8.13;5.47;;;17.50;98.80;;;;;;10420190;28;20222;-94
2023/06/09 23:33:26;;;;;;;10.50;6.82;;;17.50;99.20;;;;;;10420111;28;20270;-95
2023/06/09 23:38:29;;;;;;;7.32;6.22;;;17.40;99.20;;;;;;10402347;28;20200;-95
2023/06/09 23:43:32;;;;;;;10.80;8.48;;;17.40;99.90;;;;;;10420738;28;20238;-94
2023/06/09 23:48:35;;;;;;;6.15;5.60;;;17.40;99.90;;;;;;10418882;28;20686;-94
2023/06/09 23:53:38;;;;;;;7.85;6.10;;;17.50;99.90;;;;;;10419178;28;20616;-93
2023/06/09 23:58:41;;;;;;;6.47;5.88;;;17.50;99.90;;;;;;10419471;28;20538;-94
